Time;durP1;ratioP1;P1;durP2;ratioP2;P2;SDS_P1;SDS_P2;PMS_P1;PMS_P2;Temp;Humidity;BMP_temperature;BMP_pressure;BME280_temperature;BME280_humidity;BME280_pressure;Samples;Min_cycle;Max_cycle;Signal;HPM_P1;HPM_P2
2021/01/24 00:02:13;;;;;;;51.33;36.88;;;;;;;2.06;100.00;98842.19;5028944;28;20131;-89
2021/01/24 00:04:38;;;;;;;52.13;38.03;;;;;;;2.09;100.00;98841.88;4997201;28;20048;-89
2021/01/24 00:07:03;;;;;;;54.03;39.45;;;;;;;2.08;100.00;98841.06;4995316;28;20272;-90
2021/01/24 00:09:31;;;;;;;57.20;42.00;;;;;;;2.12;100.00;98836.28;5017282;28;20053;-89
2021/01/24 00:12:02;;;;;;;54.97;40.90;;;;;;;2.03;100.00;98838.88;5022205;28;20541;-87
2021/01/24 00:14:29;;;;;;;55.15;40.10;;;;;;;2.05;100.00;98840.56;5024170;28;20226;-89
2021/01/24 00:16:54;;;;;;;52.35;38.13;;;;;;;1.94;100.00;98839.81;5027902;28;20057;-90
2021/01/24 00:19:20;;;;;;;54.30;38.95;;;;;;;1.89;100.00;98842.09;5031537;28;20394;-91
2021/01/24 00:21:52;;;;;;;55.75;41.88;;;;;;;1.93;100.00;98838.16;5008976;28;20041;-89
2021/01/24 00:24:18;;;;;;;57.95;40.78;;;;;;;1.89;100.00;98838.63;5046274;28;20135;-90
2021/01/24 00:26:43;;;;;;;58.88;38.80;;;;;;;1.79;100.00;98839.56;5044859;28;20721;-89
2021/01/24 00:29:09;;;;;;;57.13;41.17;;;;;;;1.86;100.00;98838.94;5043618;28;20048;-90
2021/01/24 00:31:36;;;;;;;60.00;42.42;;;;;;;1.86;100.00;98841.59;5017869;28;20045;-89
2021/01/24 00:34:02;;;;;;;60.28;42.38;;;;;;;1.82;100.00;98845.53;5028234;28;20045;-90
2021/01/24 00:36:28;;;;;;;59.22;41.25;;;;;;;1.78;100.00;98843.22;5024387;28;20048;-89
2021/01/24 00:38:53;;;;;;;55.58;41.58;;;;;;;1.86;100.00;98836.28;5000621;28;20033;-89
2021/01/24 00:41:24;;;;;;;59.00;39.80;;;;;;;1.82;100.00;98846.38;5030697;28;20178;-89
2021/01/24 00:43:51;;;;;;;55.88;39.92;;;;;;;1.84;100.00;98844.38;5025857;28;20494;-92
2021/01/24 00:46:19;;;;;;;59.38;38.05;;;;;;;1.85;100.00;98846.06;5026547;28;20072;-88
2021/01/24 00:48:45;;;;;;;58.75;42.10;;;;;;;1.88;100.00;98837.81;5021433;28;20142;-88
2021/01/24 00:51:11;;;;;;;59.47;41.17;;;;;;;1.84;100.00;98839.09;5023468;28;20538;-88
2021/01/24 00:53:42;;;;;;;54.92;40.05;;;;;;;1.84;100.00;98844.38;5027114;28;20128;-89
2021/01/24 00:56:07;;;;;;;56.22;41.20;;;;;;;1.85;100.00;98845.22;5026807;28;20033;-87
2021/01/24 00:58:36;;;;;;;58.47;40.25;;;;;;;1.83;100.00;98844.53;5009358;28;20059;-88
2021/01/24 01:01:01;;;;;;;68.17;43.93;;;;;;;1.82;100.00;98846.38;5045965;28;20036;-90
2021/01/24 01:03:26;;;;;;;55.38;40.00;;;;;;;1.85;100.00;98840.75;5005001;28;20518;-89
2021/01/24 01:05:52;;;;;;;59.45;40.38;;;;;;;1.83;100.00;98841.91;5025721;28;20069;-90
2021/01/24 01:08:17;;;;;;;64.90;42.33;;;;;;;1.86;100.00;98847.69;5029540;28;20045;-89
2021/01/24 01:10:43;;;;;;;58.13;39.38;;;;;;;1.83;100.00;98852.47;5021352;28;20060;-90
2021/01/24 01:13:08;;;;;;;53.53;39.90;;;;;;;1.84;100.00;98854.97;5048522;28;20044;-89
2021/01/24 01:15:34;;;;;;;53.85;39.78;;;;;;;1.85;100.00;98854.00;5027407;28;20053;-89
2021/01/24 01:18:00;;;;;;;56.65;41.35;;;;;;;1.83;100.00;98855.94;5025612;28;20073;-89
2021/01/24 01:20:26;;;;;;;56.22;37.45;;;;;;;1.80;100.00;98851.81;5007871;28;20048;-89
2021/01/24 01:22:51;;;;;;;53.08;36.60;;;;;;;1.80;100.00;98854.44;5027759;28;20539;-89
2021/01/24 01:25:17;;;;;;;53.17;37.38;;;;;;;1.85;100.00;98858.47;5029581;28;20087;-89
2021/01/24 01:27:42;;;;;;;52.92;37.33;;;;;;;1.83;100.00;98852.47;5010597;28;20052;-89
2021/01/24 01:30:08;;;;;;;54.38;39.42;;;;;;;1.87;100.00;98859.97;5038259;28;20090;-89
2021/01/24 01:32:35;;;;;;;56.50;38.63;;;;;;;1.88;100.00;98863.44;5031444;28;20044;-89
2021/01/24 01:35:01;;;;;;;51.90;36.03;;;;;;;1.88;100.00;98858.97;5026513;28;20111;-91
2021/01/24 01:37:26;;;;;;;54.60;36.28;;;;;;;1.85;100.00;98859.28;5022808;28;20090;-89
2021/01/24 01:39:59;;;;;;;53.58;38.00;;;;;;;1.85;100.00;98856.63;5029112;28;20128;-90
2021/01/24 01:42:27;;;;;;;50.72;35.63;;;;;;;1.83;100.00;98863.06;5010331;28;20057;-89
2021/01/24 01:44:59;;;;;;;53.83;36.17;;;;;;;1.85;100.00;98861.94;5025031;28;20103;-88
2021/01/24 01:47:25;;;;;;;49.22;34.35;;;;;;;1.82;100.00;98867.53;5043640;28;20296;-88
2021/01/24 01:49:59;;;;;;;50.17;36.78;;;;;;;1.82;100.00;98859.59;5016289;28;20132;-88
2021/01/24 01:52:27;;;;;;;50.00;33.95;;;;;;;1.84;100.00;98860.25;5023348;28;20056;-90
2021/01/24 01:54:54;;;;;;;53.85;37.85;;;;;;;1.88;100.00;98861.63;5021973;28;20101;-88
2021/01/24 01:57:22;;;;;;;46.90;34.20;;;;;;;1.84;100.00;98859.41;5029151;28;20045;-90
2021/01/24 01:59:48;;;;;;;47.25;32.47;;;;;;;1.86;100.00;98865.41;5032631;28;20076;-91
2021/01/24 02:02:35;;;;;;;44.72;32.53;;;;;;;1.87;100.00;98870.53;5030142;28;20073;-89
2021/01/24 02:05:39;;;;;;;48.67;34.78;;;;;;;1.83;100.00;98863.88;5023290;28;20063;-91
2021/01/24 02:08:10;;;;;;;48.10;33.92;;;;;;;1.85;100.00;98867.22;5009084;28;20087;-91
2021/01/24 02:10:58;;;;;;;49.88;33.53;;;;;;;1.82;100.00;98869.34;5033304;28;20033;-89
2021/01/24 02:13:49;;;;;;;46.92;32.55;;;;;;;1.83;100.00;98871.81;5011398;28;20028;-88
2021/01/24 02:16:16;;;;;;;48.83;32.50;;;;;;;1.82;100.00;98866.69;5014481;28;20041;-89
2021/01/24 02:18:45;;;;;;;43.88;31.77;;;;;;;1.89;100.00;98871.19;5010761;28;20045;-91
2021/01/24 02:21:28;;;;;;;45.72;33.03;;;;;;;1.85;100.00;98869.03;5012458;28;20046;-88
2021/01/24 02:24:04;;;;;;;49.35;36.28;;;;;;;1.88;100.00;98869.53;5009888;28;20573;-88
2021/01/24 02:26:48;;;;;;;46.70;33.25;;;;;;;1.86;100.00;98879.44;5013939;28;20054;-87
2021/01/24 02:29:39;;;;;;;45.13;32.70;;;;;;;1.82;100.00;98882.56;4998722;28;20128;-88
2021/01/24 02:32:21;;;;;;;50.25;34.40;;;;;;;1.80;100.00;98880.06;4996041;28;20041;-90
2021/01/24 02:34:51;;;;;;;50.33;34.13;;;;;;;1.77;100.00;98886.50;5011171;28;20121;-89
2021/01/24 02:37:22;;;;;;;49.00;34.10;;;;;;;1.75;100.00;98883.16;5029619;28;20045;-87
2021/01/24 02:39:55;;;;;;;54.75;35.70;;;;;;;1.82;100.00;98888.69;5012567;28;20463;-89
2021/01/24 02:42:23;;;;;;;51.70;36.83;;;;;;;1.84;100.00;98891.16;5024257;28;20511;-89
2021/01/24 02:44:50;;;;;;;56.58;36.45;;;;;;;1.79;100.00;98894.28;5029254;28;20049;-89
2021/01/24 02:47:16;;;;;;;56.33;36.70;;;;;;;1.81;100.00;98892.28;5026987;28;20073;-89
2021/01/24 02:49:49;;;;;;;58.50;37.97;;;;;;;1.84;100.00;98896.44;5020419;28;20645;-88
2021/01/24 02:52:19;;;;;;;59.42;38.10;;;;;;;1.87;100.00;98901.44;5039160;28;20049;-88
2021/01/24 02:54:45;;;;;;;59.28;38.65;;;;;;;1.86;100.00;98905.91;5029973;28;20037;-88
2021/01/24 02:57:13;;;;;;;64.32;39.45;;;;;;;1.89;100.00;98900.28;5044065;28;20044;-88
2021/01/24 02:59:39;;;;;;;64.22;38.47;;;;;;;1.87;100.00;98904.94;5032072;28;20045;-90
2021/01/24 03:02:05;;;;;;;72.97;41.92;;;;;;;1.88;100.00;98909.22;5049584;28;20045;-88
2021/01/24 03:04:30;;;;;;;64.05;39.25;;;;;;;1.88;100.00;98913.69;5029203;28;20121;-89
2021/01/24 03:06:56;;;;;;;63.50;39.45;;;;;;;1.88;100.00;98911.88;5032232;28;20479;-88
2021/01/24 03:09:24;;;;;;;65.45;40.40;;;;;;;1.90;100.00;98912.56;5017278;28;20072;-89
2021/01/24 03:11:54;;;;;;;76.22;43.08;;;;;;;1.88;100.00;98914.50;5032769;28;20124;-88
2021/01/24 03:14:25;;;;;;;68.45;42.72;;;;;;;1.90;100.00;98912.56;5046492;28;20264;-88
2021/01/24 03:16:56;;;;;;;72.00;43.55;;;;;;;1.86;100.00;98927.06;5031351;28;20043;-90
2021/01/24 03:19:25;;;;;;;70.53;40.10;;;;;;;1.85;100.00;98925.41;5034753;28;20069;-91
2021/01/24 03:21:52;;;;;;;67.88;41.22;;;;;;;1.84;100.00;98925.53;5032205;28;20041;-89
2021/01/24 03:24:19;;;;;;;73.53;43.15;;;;;;;1.79;100.00;98931.31;5034076;28;20460;-88
2021/01/24 03:26:45;;;;;;;67.00;40.17;;;;;;;1.74;100.00;98934.41;5050988;28;20643;-87
2021/01/24 03:29:12;;;;;;;65.65;38.00;;;;;;;1.77;100.00;98935.91;5028650;28;20349;-90
2021/01/24 03:31:40;;;;;;;67.85;40.08;;;;;;;1.74;100.00;98928.28;5016494;28;20037;-91
2021/01/24 03:34:14;;;;;;;70.85;40.45;;;;;;;1.74;100.00;98938.88;5031819;28;20542;-89
2021/01/24 03:36:39;;;;;;;70.38;41.03;;;;;;;1.74;100.00;98947.63;5031319;28;20061;-89
2021/01/24 03:39:05;;;;;;;68.30;38.17;;;;;;;1.71;100.00;98942.66;5042222;28;20380;-91
2021/01/24 03:41:31;;;;;;;74.57;40.90;;;;;;;1.71;100.00;98944.47;5030261;28;20138;-86
2021/01/24 03:43:58;;;;;;;70.38;38.25;;;;;;;1.70;100.00;98948.09;5047107;28;20483;-88
2021/01/24 03:46:23;;;;;;;68.25;39.42;;;;;;;1.63;100.00;98945.22;5015964;28;20044;-91
2021/01/24 03:48:48;;;;;;;61.22;35.92;;;;;;;1.57;100.00;98954.59;5031715;28;20484;-89
2021/01/24 03:51:14;;;;;;;64.38;33.88;;;;;;;1.50;100.00;98960.66;5017188;28;20044;-90
2021/01/24 03:53:39;;;;;;;57.78;33.08;;;;;;;1.48;100.00;98960.78;5047662;28;20086;-89
2021/01/24 03:56:04;;;;;;;58.35;32.47;;;;;;;1.46;100.00;98969.84;5046455;28;20044;-89
2021/01/24 03:58:31;;;;;;;54.33;31.77;;;;;;;1.46;100.00;98968.03;5029221;28;20037;-89
2021/01/24 04:00:57;;;;;;;51.28;29.25;;;;;;;1.48;100.00;98968.72;5046411;28;20551;-92
2021/01/24 04:03:30;;;;;;;49.03;26.83;;;;;;;1.46;100.00;98983.88;5047772;28;20049;-89
2021/01/24 04:05:56;;;;;;;45.72;25.13;;;;;;;1.48;100.00;98987.22;4994047;28;20045;-88
2021/01/24 04:08:21;;;;;;;38.63;24.05;;;;;;;1.46;100.00;98981.25;5030574;28;20033;-90
2021/01/24 04:10:48;;;;;;;31.52;20.17;;;;;;;1.38;100.00;98983.81;5029901;28;20518;-89
2021/01/24 04:13:15;;;;;;;30.63;19.70;;;;;;;1.35;100.00;98992.03;5030206;28;20037;-91
2021/01/24 04:15:48;;;;;;;29.95;18.10;;;;;;;1.34;100.00;98990.38;5013628;28;20041;-88
2021/01/24 04:18:20;;;;;;;20.63;14.15;;;;;;;1.30;100.00;98989.03;5030469;28;20040;-92
2021/01/24 04:20:46;;;;;;;21.90;13.52;;;;;;;1.31;100.00;98991.50;5028985;28;20110;-88
2021/01/24 04:23:13;;;;;;;22.98;14.32;;;;;;;1.27;100.00;98999.91;5023624;28;20056;-90
2021/01/24 04:25:38;;;;;;;23.13;14.02;;;;;;;1.23;100.00;98998.50;5038663;28;20584;-88
2021/01/24 04:28:09;;;;;;;19.33;12.82;;;;;;;1.21;100.00;99008.38;5027640;28;20045;-90
2021/01/24 04:30:36;;;;;;;22.70;13.50;;;;;;;1.18;100.00;99011.31;5047640;28;20045;-89
2021/01/24 04:33:04;;;;;;;18.83;12.45;;;;;;;1.17;100.00;99001.75;5010230;28;20542;-88
2021/01/24 04:35:32;;;;;;;20.02;10.82;;;;;;;1.17;100.00;99009.69;5047193;28;20048;-89
2021/01/24 04:38:00;;;;;;;20.60;12.45;;;;;;;1.09;100.00;99016.53;5030688;28;20115;-88
2021/01/24 04:40:25;;;;;;;17.45;11.25;;;;;;;1.10;100.00;99025.28;5030476;28;20533;-90
2021/01/24 04:42:51;;;;;;;22.42;12.27;;;;;;;1.09;100.00;99019.19;5030477;28;20049;-89
2021/01/24 04:45:19;;;;;;;20.25;11.95;;;;;;;1.05;100.00;99024.91;5028520;28;20116;-91
2021/01/24 04:47:46;;;;;;;22.42;13.40;;;;;;;1.04;100.00;99029.34;5030537;28;20047;-88
2021/01/24 04:50:12;;;;;;;24.40;13.30;;;;;;;1.06;100.00;99032.66;5014087;28;20048;-90
2021/01/24 04:52:39;;;;;;;23.85;15.02;;;;;;;1.03;100.00;99043.53;5029017;28;20037;-89
2021/01/24 04:55:06;;;;;;;22.17;13.10;;;;;;;1.01;100.00;99040.22;5028860;28;20080;-90
2021/01/24 04:57:32;;;;;;;22.55;14.80;;;;;;;1.08;100.00;99043.09;5046788;28;20040;-88
2021/01/24 04:59:58;;;;;;;23.48;13.95;;;;;;;1.03;100.00;99040.88;5026792;28;20040;-91
2021/01/24 05:02:37;;;;;;;28.17;15.07;;;;;;;1.06;100.00;99043.22;5047563;28;20503;-87
2021/01/24 05:05:04;;;;;;;29.90;17.20;;;;;;;1.10;100.00;99041.16;5037867;28;20037;-90
2021/01/24 05:07:31;;;;;;;27.63;16.55;;;;;;;1.14;100.00;99045.16;5029951;28;20490;-90
2021/01/24 05:09:57;;;;;;;27.17;16.45;;;;;;;1.15;100.00;99051.25;5025984;28;20118;-88
2021/01/24 05:12:28;;;;;;;25.92;15.80;;;;;;;1.12;100.00;99055.88;5041381;28;20037;-88
2021/01/24 05:15:01;;;;;;;28.45;16.70;;;;;;;1.15;100.00;99060.00;5039380;28;20033;-89
2021/01/24 05:17:26;;;;;;;25.13;14.43;;;;;;;1.18;100.00;99057.09;5047699;28;20045;-88
2021/01/24 05:19:53;;;;;;;26.73;16.75;;;;;;;1.22;100.00;99055.00;5007580;28;20530;-89
2021/01/24 05:22:18;;;;;;;27.48;16.42;;;;;;;1.22;100.00;99066.38;5032015;28;20036;-88
2021/01/24 05:24:44;;;;;;;27.60;16.83;;;;;;;1.22;100.00;99071.69;5029442;28;20052;-89
2021/01/24 05:27:25;;;;;;;29.83;17.33;;;;;;;1.22;100.00;99071.69;5026269;28;20053;-91
2021/01/24 05:29:51;;;;;;;28.35;16.58;;;;;;;1.24;100.00;99072.38;5025811;28;20044;-88
2021/01/24 05:32:19;;;;;;;31.65;18.23;;;;;;;1.22;100.00;99087.53;5028553;28;20048;-89
2021/01/24 05:34:49;;;;;;;32.80;18.88;;;;;;;1.27;100.00;99073.88;5027871;28;20037;-90
2021/01/24 05:37:15;;;;;;;37.42;20.10;;;;;;;1.20;100.00;99081.56;5028606;28;20088;-88
2021/01/24 05:39:43;;;;;;;38.75;21.83;;;;;;;1.13;100.00;99083.94;5026676;28;20056;-91
2021/01/24 05:42:11;;;;;;;39.90;21.63;;;;;;;1.12;100.00;99086.72;5043774;28;20069;-90
2021/01/24 05:44:39;;;;;;;43.00;24.67;;;;;;;1.12;100.00;99092.00;5029766;28;20044;-90
2021/01/24 05:47:06;;;;;;;42.70;23.25;;;;;;;1.11;100.00;99100.91;5025136;28;20067;-89
2021/01/24 05:49:33;;;;;;;46.45;24.10;;;;;;;1.09;100.00;99102.88;5029971;28;20118;-90
2021/01/24 05:52:11;;;;;;;47.85;25.88;;;;;;;1.12;100.00;99102.56;5028030;28;20033;-87
2021/01/24 05:54:45;;;;;;;43.70;26.73;;;;;;;1.15;100.00;99115.50;5025369;28;20052;-89
2021/01/24 05:57:16;;;;;;;49.03;27.80;;;;;;;1.10;100.00;99121.22;5026971;28;21093;-88
2021/01/24 05:59:51;;;;;;;54.40;28.83;;;;;;;1.12;100.00;99127.22;5026685;28;20037;-90
2021/01/24 06:02:19;;;;;;;55.60;31.50;;;;;;;1.10;100.00;99123.06;4997231;28;20077;-90
2021/01/24 06:04:48;;;;;;;60.15;33.22;;;;;;;1.07;100.00;99132.09;5045049;28;20037;-91
2021/01/24 06:07:13;;;;;;;66.93;34.30;;;;;;;1.09;100.00;99130.16;5042858;28;20041;-89
2021/01/24 06:09:39;;;;;;;62.85;31.85;;;;;;;1.06;100.00;99133.03;5011950;28;20049;-89
2021/01/24 06:12:08;;;;;;;63.65;36.00;;;;;;;1.13;100.00;99144.72;5029227;28;20044;-88
2021/01/24 06:14:46;;;;;;;66.18;35.55;;;;;;;1.08;100.00;99144.31;4995265;28;20538;-88
2021/01/24 06:17:33;;;;;;;70.30;35.03;;;;;;;1.08;100.00;99152.25;5028447;28;20072;-88
2021/01/24 06:20:01;;;;;;;68.43;37.60;;;;;;;1.13;100.00;99152.66;5053731;23;20052;-83
2021/01/24 06:22:32;;;;;;;70.75;36.55;;;;;;;1.06;100.00;99156.81;5067430;28;20135;-82
2021/01/24 06:25:01;;;;;;;67.47;36.95;;;;;;;1.14;100.00;99161.41;5062502;28;20115;-82
2021/01/24 06:27:34;;;;;;;70.70;36.97;;;;;;;1.16;100.00;99161.28;5062207;28;20044;-82
2021/01/24 06:30:01;;;;;;;66.25;35.38;;;;;;;1.12;100.00;99158.91;5065439;28;20048;-82
2021/01/24 06:32:30;;;;;;;67.32;36.10;;;;;;;1.14;100.00;99169.31;5063465;28;20056;-83
2021/01/24 06:35:13;;;;;;;68.00;37.88;;;;;;;1.19;100.00;99166.28;5067551;28;20033;-82
2021/01/24 06:37:46;;;;;;;68.05;36.15;;;;;;;1.21;100.00;99161.66;5068831;28;20442;-84
2021/01/24 06:40:32;;;;;;;68.00;36.20;;;;;;;1.21;100.00;99166.94;5069526;28;20445;-82
2021/01/24 06:43:03;;;;;;;67.85;36.47;;;;;;;1.16;100.00;99171.84;5069501;28;20053;-83
2021/01/24 06:45:28;;;;;;;69.97;35.15;;;;;;;1.12;100.00;99177.41;5072188;28;20048;-84
2021/01/24 06:47:59;;;;;;;67.28;36.20;;;;;;;1.13;100.00;99173.78;5073923;28;20041;-83
2021/01/24 06:50:57;;;;;;;60.63;34.40;;;;;;;1.15;100.00;99183.38;5072170;28;20115;-84
2021/01/24 06:53:26;;;;;;;67.43;36.33;;;;;;;1.10;100.00;99182.00;5035177;28;20041;-84
2021/01/24 06:55:56;;;;;;;62.95;37.40;;;;;;;1.12;100.00;99190.63;5074341;28;20049;-84
2021/01/24 06:58:33;;;;;;;71.97;37.85;;;;;;;1.17;100.00;99197.28;5050551;28;20040;-82
2021/01/24 07:01:30;;;;;;;70.88;39.13;;;;;;;1.16;100.00;99204.38;5070468;28;20447;-84
2021/01/24 07:04:17;;;;;;;67.25;35.10;;;;;;;1.12;100.00;99211.75;5070460;28;20443;-84
2021/01/24 07:06:48;;;;;;;62.80;31.20;;;;;;;1.15;100.00;99215.91;5069475;28;20096;-84
2021/01/24 07:09:25;;;;;;;64.13;36.25;;;;;;;1.16;100.00;99203.56;5072143;28;20131;-84
2021/01/24 07:11:53;;;;;;;63.72;34.25;;;;;;;1.12;100.00;99214.41;5069704;28;20044;-83
2021/01/24 07:14:34;;;;;;;63.47;34.13;;;;;;;1.11;100.00;99218.00;5065610;28;20079;-84
2021/01/24 07:17:10;;;;;;;62.53;35.50;;;;;;;1.08;100.00;99223.56;5071472;28;20545;-82
2021/01/24 07:19:40;;;;;;;58.40;31.08;;;;;;;1.09;100.00;99230.53;5073331;28;20045;-83
2021/01/24 07:22:06;;;;;;;61.15;34.13;;;;;;;1.08;100.00;99239.44;5073130;28;20400;-83
2021/01/24 07:24:32;;;;;;;61.03;32.13;;;;;;;1.09;100.00;99233.19;5072468;28;20043;-83
2021/01/24 07:26:59;;;;;;;59.05;30.75;;;;;;;1.11;100.00;99240.94;5083448;28;20056;-83
2021/01/24 07:29:25;;;;;;;57.63;30.38;;;;;;;1.11;100.00;99248.88;5094197;28;20070;-81
2021/01/24 07:31:53;;;;;;;58.17;29.95;;;;;;;1.15;100.00;99254.72;5095286;28;20032;-82
2021/01/24 07:34:21;;;;;;;55.40;28.80;;;;;;;1.13;100.00;99257.50;5094511;28;20056;-81
2021/01/24 07:36:46;;;;;;;54.55;28.23;;;;;;;1.06;100.00;99259.84;5091193;28;20087;-82
2021/01/24 07:39:12;;;;;;;51.95;25.90;;;;;;;1.03;100.00;99254.84;5085822;28;20043;-82
2021/01/24 07:41:37;;;;;;;54.13;27.00;;;;;;;1.03;100.00;99249.56;5070026;28;20036;-82
2021/01/24 07:44:03;;;;;;;47.42;25.08;;;;;;;1.01;100.00;99266.56;5061575;28;20595;-82
2021/01/24 07:46:29;;;;;;;51.45;25.60;;;;;;;1.02;100.00;99265.59;5068496;28;20040;-83
2021/01/24 07:48:54;;;;;;;47.10;24.23;;;;;;;0.96;100.00;99277.53;5070773;28;20037;-83
2021/01/24 07:51:20;;;;;;;45.40;23.75;;;;;;;1.00;100.00;99273.63;5070175;28;20404;-83
2021/01/24 07:53:46;;;;;;;46.80;24.42;;;;;;;0.95;100.00;99280.31;5069063;28;20115;-83
2021/01/24 07:56:12;;;;;;;50.35;26.15;;;;;;;0.91;100.00;99290.31;5064085;28;20048;-82
2021/01/24 07:58:38;;;;;;;50.80;24.70;;;;;;;0.93;100.00;99288.38;5064639;28;20041;-83
2021/01/24 08:01:04;;;;;;;44.17;24.85;;;;;;;0.90;100.00;99288.66;5059410;28;20029;-83
2021/01/24 08:03:29;;;;;;;44.30;23.80;;;;;;;0.91;100.00;99295.59;5059055;28;20427;-83
2021/01/24 08:06:16;;;;;;;49.47;23.70;;;;;;;0.94;100.00;99297.13;5060927;28;20048;-85
2021/01/24 08:08:43;;;;;;;45.83;22.73;;;;;;;0.92;100.00;99315.75;5062699;28;20040;-80
2021/01/24 08:11:08;;;;;;;43.10;20.70;;;;;;;0.96;100.00;99313.69;5061299;28;20056;-83
2021/01/24 08:13:35;;;;;;;40.90;21.38;;;;;;;0.98;100.00;99323.16;5060252;28;20040;-81
2021/01/24 08:16:06;;;;;;;44.40;21.23;;;;;;;1.03;100.00;99314.78;5063140;28;20043;-85
2021/01/24 08:18:33;;;;;;;45.22;21.25;;;;;;;1.01;100.00;99314.94;5063654;28;20040;-81
2021/01/24 08:20:59;;;;;;;44.65;22.20;;;;;;;1.01;100.00;99327.31;5060901;28;20053;-84
2021/01/24 08:23:25;;;;;;;41.63;20.77;;;;;;;1.03;100.00;99325.34;5062506;28;20041;-83
2021/01/24 08:25:55;;;;;;;36.13;18.70;;;;;;;1.02;100.00;99334.25;5068456;28;20067;-82
2021/01/24 08:28:20;;;;;;;44.28;20.52;;;;;;;1.04;100.00;99345.53;5069049;28;20064;-81
2021/01/24 08:30:46;;;;;;;40.38;18.90;;;;;;;1.03;100.00;99343.84;5069474;28;20052;-83
2021/01/24 08:33:13;;;;;;;37.53;18.73;;;;;;;1.09;100.00;99348.56;5068393;28;20048;-81
2021/01/24 08:35:38;;;;;;;34.13;18.05;;;;;;;1.11;100.00;99349.28;5067850;28;20137;-82
2021/01/24 08:38:04;;;;;;;39.28;19.55;;;;;;;1.10;100.00;99348.44;5067764;28;20508;-81
2021/01/24 08:40:32;;;;;;;43.88;18.27;;;;;;;1.15;100.00;99363.03;5066972;28;20097;-82
2021/01/24 08:42:57;;;;;;;39.10;17.95;;;;;;;1.17;100.00;99347.91;5067381;28;20508;-82
2021/01/24 08:45:25;;;;;;;42.65;19.85;;;;;;;1.21;100.00;99351.91;5068144;28;20051;-81
2021/01/24 08:47:51;;;;;;;38.88;19.27;;;;;;;1.11;100.00;99362.50;5066892;28;20036;-81
2021/01/24 08:50:17;;;;;;;38.20;18.10;;;;;;;1.18;100.00;99360.97;5068863;28;20112;-81
2021/01/24 08:52:42;;;;;;;42.45;19.60;;;;;;;1.19;100.00;99353.88;5066819;28;20716;-81
2021/01/24 08:55:08;;;;;;;39.10;18.58;;;;;;;1.23;100.00;99369.31;5065563;28;20042;-81
2021/01/24 08:57:34;;;;;;;38.78;18.52;;;;;;;1.24;100.00;99364.88;5066002;28;20072;-83
2021/01/24 09:00:04;;;;;;;34.47;17.83;;;;;;;1.25;100.00;99364.72;5066559;28;20090;-82
2021/01/24 09:02:30;;;;;;;37.75;18.38;;;;;;;1.29;100.00;99354.69;5067793;28;20104;-84
2021/01/24 09:04:56;;;;;;;37.22;18.83;;;;;;;1.34;100.00;99363.88;5066698;28;20080;-83
2021/01/24 09:07:22;;;;;;;38.35;19.90;;;;;;;1.34;100.00;99369.16;5065757;28;20491;-84
2021/01/24 09:09:49;;;;;;;40.42;22.23;;;;;;;1.38;100.00;99364.41;5064247;28;20033;-83
2021/01/24 09:12:19;;;;;;;35.60;18.83;;;;;;;1.41;100.00;99369.47;5062025;28;20423;-81
2021/01/24 09:14:44;;;;;;;30.67;16.33;;;;;;;1.38;100.00;99376.81;5066281;28;20484;-83
2021/01/24 09:17:11;;;;;;;34.80;17.95;;;;;;;1.38;100.00;99372.34;5068720;28;20039;-80
2021/01/24 09:19:45;;;;;;;32.28;16.70;;;;;;;1.41;100.00;99379.16;5068260;28;20396;-80
2021/01/24 09:22:12;;;;;;;39.17;20.48;;;;;;;1.45;100.00;99383.22;5064708;28;20123;-80
2021/01/24 09:24:39;;;;;;;33.58;16.20;;;;;;;1.44;100.00;99385.03;5066484;28;20044;-80
2021/01/24 09:27:07;;;;;;;30.85;15.27;;;;;;;1.41;100.00;99393.25;5067254;28;20127;-81
2021/01/24 09:29:36;;;;;;;27.33;12.70;;;;;;;1.42;100.00;99394.91;5067026;28;20119;-81
2021/01/24 09:32:03;;;;;;;29.70;13.23;;;;;;;1.47;100.00;99410.38;5059857;28;20044;-80
2021/01/24 09:34:29;;;;;;;23.60;12.38;;;;;;;1.44;100.00;99395.63;5065068;28;20098;-83
2021/01/24 09:36:55;;;;;;;27.65;13.38;;;;;;;1.43;100.00;99409.78;5061322;28;20053;-83
2021/01/24 09:39:20;;;;;;;26.17;13.40;;;;;;;1.42;100.00;99410.78;5050609;28;20451;-83
2021/01/24 09:41:45;;;;;;;23.45;10.68;;;;;;;1.44;100.00;99398.25;5066359;28;20029;-81
2021/01/24 09:44:11;;;;;;;22.75;11.30;;;;;;;1.42;100.00;99416.06;5069079;28;20488;-81
2021/01/24 09:46:36;;;;;;;20.55;10.30;;;;;;;1.44;100.00;99413.25;5038131;28;20657;-84
2021/01/24 09:49:04;;;;;;;21.13;10.00;;;;;;;1.44;100.00;99415.91;5052355;28;20118;-83
2021/01/24 09:51:30;;;;;;;18.13;9.55;;;;;;;1.47;100.00;99420.94;5034579;28;20116;-81
2021/01/24 09:53:58;;;;;;;22.98;11.95;;;;;;;1.54;100.00;99425.50;5031002;28;20050;-81
2021/01/24 09:56:24;;;;;;;24.15;11.25;;;;;;;1.54;100.00;99430.78;5030036;28;20095;-81
2021/01/24 09:58:50;;;;;;;20.38;12.45;;;;;;;1.61;100.00;99430.22;5010607;28;20037;-80
2021/01/24 10:01:16;;;;;;;21.80;12.82;;;;;;;1.63;100.00;99433.59;5039777;28;20049;-81
2021/01/24 10:03:41;;;;;;;21.63;12.40;;;;;;;1.69;100.00;99433.84;5017961;28;20090;-81
2021/01/24 10:06:08;;;;;;;18.90;10.85;;;;;;;1.72;100.00;99438.03;5046803;28;20041;-83
2021/01/24 10:08:33;;;;;;;22.20;11.55;;;;;;;1.72;100.00;99438.03;5027092;28;20121;-82
2021/01/24 10:11:01;;;;;;;21.00;13.30;;;;;;;1.72;100.00;99435.38;5053798;28;20060;-80
2021/01/24 10:13:30;;;;;;;20.40;10.73;;;;;;;1.73;100.00;99431.78;5073418;28;20132;-80
2021/01/24 10:15:55;;;;;;;19.23;11.20;;;;;;;1.73;100.00;99437.06;5073061;28;20045;-84
2021/01/24 10:18:22;;;;;;;17.60;11.05;;;;;;;1.72;100.00;99441.50;5074416;28;20796;-81
2021/01/24 10:20:47;;;;;;;20.10;11.15;;;;;;;1.80;100.00;99444.28;5069257;28;20408;-81
2021/01/24 10:23:14;;;;;;;22.50;13.15;;;;;;;1.83;100.00;99448.44;5070013;28;20040;-81
2021/01/24 10:25:40;;;;;;;18.70;9.35;;;;;;;1.75;100.00;99456.25;5070712;28;20063;-83
2021/01/24 10:28:06;;;;;;;24.88;14.55;;;;;;;1.76;100.00;99452.66;5077648;28;20044;-85
2021/01/24 10:30:31;;;;;;;22.17;13.23;;;;;;;1.82;100.00;99459.19;5076905;28;20075;-81
2021/01/24 10:32:57;;;;;;;26.50;15.82;;;;;;;1.88;100.00;99463.91;5076909;28;20055;-81
2021/01/24 10:35:23;;;;;;;14.70;7.80;;;;;;;1.88;100.00;99459.47;5074372;28;20471;-81
2021/01/24 10:37:48;;;;;;;14.20;6.32;;;;;;;1.90;100.00;99459.28;5051721;28;20056;-81
2021/01/24 10:40:14;;;;;;;15.60;10.35;;;;;;;1.97;100.00;99469.19;5070337;28;20032;-79
2021/01/24 10:42:40;;;;;;;13.10;9.00;;;;;;;1.98;100.00;99459.44;5070506;28;20040;-80
2021/01/24 10:45:10;;;;;;;13.00;6.93;;;;;;;2.03;100.00;99468.63;5073252;28;20041;-79
2021/01/24 10:47:36;;;;;;;14.07;7.82;;;;;;;2.08;100.00;99467.38;5071319;28;20052;-79
2021/01/24 10:50:02;;;;;;;13.13;6.05;;;;;;;2.01;100.00;99469.72;5072785;28;20043;-80
2021/01/24 10:52:27;;;;;;;15.00;8.30;;;;;;;2.10;100.00;99479.50;5073617;28;20032;-80
2021/01/24 10:54:53;;;;;;;14.32;6.88;;;;;;;2.12;100.00;99488.09;5070913;28;20535;-80
2021/01/24 10:57:18;;;;;;;21.33;11.13;;;;;;;2.18;100.00;99487.53;5072920;28;20041;-84
2021/01/24 10:59:44;;;;;;;17.50;9.18;;;;;;;2.22;100.00;99488.09;5065576;28;20526;-80
2021/01/24 11:02:09;;;;;;;13.50;7.00;;;;;;;2.23;100.00;99485.28;5068587;28;20050;-81
2021/01/24 11:04:35;;;;;;;10.25;6.60;;;;;;;2.22;100.00;99494.22;5058508;28;20033;-82
2021/01/24 11:07:00;;;;;;;10.95;5.95;;;;;;;2.21;100.00;99497.81;5066372;28;20044;-80
2021/01/24 11:09:26;;;;;;;11.85;6.35;;;;;;;2.25;100.00;99495.75;5068515;28;20044;-80
2021/01/24 11:11:52;;;;;;;10.20;5.97;;;;;;;2.28;100.00;99495.47;5063836;28;20090;-80
2021/01/24 11:14:17;;;;;;;7.20;4.93;;;;;;;2.31;100.00;99484.59;5071869;28;20132;-80
2021/01/24 11:16:43;;;;;;;11.07;6.07;;;;;;;2.38;100.00;99487.50;5052100;28;20036;-82
2021/01/24 11:19:08;;;;;;;7.78;4.97;;;;;;;2.44;100.00;99476.31;5069265;28;20048;-79
2021/01/24 11:21:34;;;;;;;8.20;4.50;;;;;;;2.48;100.00;99481.19;5068676;28;20515;-80
2021/01/24 11:27:21;;;;;;;13.80;8.82;;;;;;;2.60;100.00;99481.03;5064883;28;20047;-80